createdAt,value
2022-11-24T00:00:53.184Z,100406.22
2022-11-24T00:03:19.904Z,100397.44
2022-11-24T00:05:46.371Z,100402.25
2022-11-24T00:08:13.116Z,100393.44
2022-11-24T00:10:39.525Z,100379.34
2022-11-24T00:13:05.912Z,100396.41
2022-11-24T00:15:32.344Z,100414.81
2022-11-24T00:17:58.700Z,100429.50
2022-11-24T00:20:25.085Z,100431.09
2022-11-24T00:22:51.515Z,100423.09
2022-11-24T00:25:17.881Z,100428.69
2022-11-24T00:27:44.432Z,100433.50
2022-11-24T00:30:11.384Z,100428.69
2022-11-24T00:32:37.791Z,100432.16
2022-11-24T00:35:04.571Z,100435.63
2022-11-24T00:37:31.220Z,100432.41
2022-11-24T00:39:57.590Z,100421.44
2022-11-24T00:42:24.020Z,100431.31
2022-11-24T00:44:50.363Z,100427.31
2022-11-24T00:47:16.775Z,100429.50
2022-11-24T00:49:43.198Z,100429.75
2022-11-24T00:52:09.658Z,100430.25
2022-11-24T00:54:36.046Z,100436.34
2022-11-24T00:57:02.394Z,100439.03
2022-11-24T00:59:28.775Z,100445.91
2022-11-24T01:01:55.264Z,100449.34
2022-11-24T01:04:22.163Z,100456.53
2022-11-24T01:06:48.561Z,100453.84
2022-11-24T01:09:14.930Z,100454.94
2022-11-24T01:11:59.938Z,100457.03
2022-11-24T01:14:26.870Z,100465.53
2022-11-24T01:16:54.029Z,100459.91
2022-11-24T01:19:21.201Z,100453.22
2022-11-24T01:21:47.611Z,100465.75
2022-11-24T01:24:14.498Z,100478.81
2022-11-24T01:26:41.297Z,100470.78
2022-11-24T01:29:09.350Z,100470.47
2022-11-24T01:31:37.017Z,100484.34
2022-11-24T01:34:03.612Z,100477.41
2022-11-24T01:36:29.979Z,100476.31
2022-11-24T01:38:56.345Z,100473.34
2022-11-24T01:41:24.539Z,100477.06
2022-11-24T01:43:52.916Z,100478.13
2022-11-24T01:46:30.626Z,100471.19
2022-11-24T01:49:06.047Z,100484.22
2022-11-24T01:51:36.143Z,100489.53
2022-11-24T01:54:11.208Z,100482.91
2022-11-24T01:56:42.493Z,100480.22
2022-11-24T01:59:14.222Z,100484.31
2022-11-24T02:01:40.725Z,100483.78
2022-11-24T02:04:12.713Z,100493.16
2022-11-24T02:06:43.226Z,100494.50
2022-11-24T02:09:19.646Z,100479.91
2022-11-24T02:11:47.078Z,100495.41
2022-11-24T02:14:16.459Z,100502.94
2022-11-24T02:16:48.153Z,100501.66
2022-11-24T02:19:52.900Z,100507.06
2022-11-24T02:22:31.206Z,100504.94
2022-11-24T02:25:09.908Z,100501.75
2022-11-24T02:27:36.426Z,100501.50
2022-11-24T02:30:04.187Z,100508.47
2022-11-24T02:32:33.122Z,100497.81
2022-11-24T02:35:05.787Z,100515.97
2022-11-24T02:37:32.165Z,100517.09
2022-11-24T02:39:58.532Z,100518.13
2022-11-24T02:42:31.826Z,100513.59
2022-11-24T02:45:00.238Z,100522.97
2022-11-24T02:47:26.995Z,100521.09
2022-11-24T02:49:53.419Z,100520.03
2022-11-24T02:52:19.963Z,100525.63
2022-11-24T02:54:46.379Z,100526.44
2022-11-24T02:57:12.752Z,100526.97
2022-11-24T02:59:39.182Z,100521.88
2022-11-24T03:02:05.646Z,100521.34
2022-11-24T03:04:32.617Z,100524.03
2022-11-24T03:06:59.296Z,100529.16
2022-11-24T03:09:25.678Z,100524.03
2022-11-24T03:11:52.025Z,100515.03
2022-11-24T03:14:18.393Z,100517.72
2022-11-24T03:16:44.838Z,100516.38
2022-11-24T03:19:11.315Z,100524.38
2022-11-24T03:21:37.705Z,100525.44
2022-11-24T03:24:04.478Z,100525.44
2022-11-24T03:26:30.871Z,100531.59
2022-11-24T03:28:57.489Z,100526.25
2022-11-24T03:31:24.372Z,100528.94
2022-11-24T03:33:50.864Z,100540.44
2022-11-24T03:36:17.904Z,100539.06
2022-11-24T03:38:44.311Z,100536.66
2022-11-24T03:41:10.903Z,100531.84
2022-11-24T03:43:43.146Z,100539.59
2022-11-24T03:46:12.334Z,100535.84
2022-11-24T03:48:39.220Z,100540.38
2022-11-24T03:51:05.922Z,100537.44
2022-11-24T03:53:33.612Z,100546.28
2022-11-24T03:56:00.738Z,100544.66
2022-11-24T03:58:27.138Z,100543.56
2022-11-24T04:00:54.891Z,100552.41
2022-11-24T04:03:22.216Z,100551.34
2022-11-24T04:05:49.012Z,100556.44
2022-11-24T04:08:15.877Z,100554.56
2022-11-24T04:10:42.427Z,100557.78
2022-11-24T04:13:17.886Z,100560.19
2022-11-24T04:15:44.626Z,100573.50
2022-11-24T04:18:12.241Z,100573.19
2022-11-24T04:20:39.347Z,100574.28
2022-11-24T04:23:05.691Z,100580.19
2022-11-24T04:25:32.375Z,100574.78
2022-11-24T04:27:58.739Z,100587.06
2022-11-24T04:30:26.907Z,100586.78
2022-11-24T04:32:53.468Z,100594.50
2022-11-24T04:35:20.775Z,100582.22
2022-11-24T04:37:47.638Z,100593.66
2022-11-24T04:40:14.941Z,100592.31
2022-11-24T04:42:41.669Z,100600.81
2022-11-24T04:45:08.334Z,100597.91
2022-11-24T04:47:34.834Z,100611.00
2022-11-24T04:50:01.162Z,100615.28
2022-11-24T04:52:27.582Z,100621.16
2022-11-24T04:54:53.934Z,100618.50
2022-11-24T04:57:22.818Z,100634.22
2022-11-24T04:59:50.001Z,100635.28
2022-11-24T05:02:16.824Z,100633.16
2022-11-24T05:04:43.356Z,100639.53
2022-11-24T05:07:18.256Z,100644.03
2022-11-24T05:10:03.790Z,100638.16
2022-11-24T05:12:31.185Z,100648.31
2022-11-24T05:15:02.114Z,100663.53
2022-11-24T05:17:30.593Z,100661.66
2022-11-24T05:19:57.538Z,100671.53
2022-11-24T05:22:24.034Z,100666.69
2022-11-24T05:24:50.412Z,100680.53
2022-11-24T05:27:17.019Z,100681.03
2022-11-24T05:29:43.531Z,100690.59
2022-11-24T05:32:09.925Z,100684.16
2022-11-24T05:34:36.559Z,100687.56
2022-11-24T05:37:03.804Z,100699.53
2022-11-24T05:39:34.413Z,100696.53
2022-11-24T05:42:22.616Z,100703.97
2022-11-24T05:44:49.078Z,100701.28
2022-11-24T05:47:15.706Z,100714.81
2022-11-24T05:49:42.506Z,100723.56
2022-11-24T05:52:09.198Z,100723.53
2022-11-24T05:54:35.820Z,100730.94
2022-11-24T05:57:02.374Z,100738.38
2022-11-24T05:59:28.702Z,100741.53
2022-11-24T06:01:55.145Z,100746.06
2022-11-24T06:04:21.597Z,100746.56
2022-11-24T06:06:47.944Z,100747.34
2022-11-24T06:09:14.620Z,100768.44
2022-11-24T06:11:40.997Z,100774.00
2022-11-24T06:14:11.087Z,100766.00
2022-11-24T06:16:38.206Z,100778.53
2022-11-24T06:19:04.678Z,100778.78
2022-11-24T06:21:31.717Z,100784.66
2022-11-24T06:23:58.285Z,100781.97
2022-11-24T06:26:24.753Z,100799.03
2022-11-24T06:28:51.194Z,100799.84
2022-11-24T06:31:17.679Z,100801.72
2022-11-24T06:33:44.219Z,100808.88
2022-11-24T06:36:13.332Z,100817.44
2022-11-24T06:38:39.672Z,100817.69
2022-11-24T06:41:09.548Z,100827.28
2022-11-24T06:43:36.059Z,100834.22
2022-11-24T06:46:03.011Z,100837.94
2022-11-24T06:48:30.276Z,100845.38
2022-11-24T06:51:04.835Z,100853.38
2022-11-24T06:53:32.785Z,100846.66
2022-11-24T06:56:00.517Z,100858.63
2022-11-24T06:58:26.915Z,100854.59
2022-11-24T07:00:53.460Z,100851.84
2022-11-24T07:03:20.089Z,100869.34
2022-11-24T07:05:46.812Z,100877.84
2022-11-24T07:08:17.736Z,100875.41
2022-11-24T07:10:44.499Z,100880.41
2022-11-24T07:13:11.016Z,100885.72
2022-11-24T07:15:37.437Z,100889.22
2022-11-24T07:18:04.304Z,100895.09
2022-11-24T07:20:30.632Z,100907.13
2022-11-24T07:22:57.883Z,100914.31
2022-11-24T07:25:25.452Z,100911.41
2022-11-24T07:27:58.824Z,100914.63
2022-11-24T07:30:26.894Z,100913.34
2022-11-24T07:32:59.146Z,100912.31
2022-11-24T07:35:25.683Z,100913.34
2022-11-24T07:37:55.695Z,100921.09
2022-11-24T07:40:23.147Z,100932.56
2022-11-24T07:42:49.527Z,100935.25
2022-11-24T07:45:15.986Z,100947.50
2022-11-24T07:47:42.422Z,100948.06
2022-11-24T07:50:10.010Z,100959.28
2022-11-24T07:52:37.469Z,100961.94
2022-11-24T07:55:04.829Z,100956.63
2022-11-24T07:57:31.314Z,100964.94
2022-11-24T07:59:57.768Z,100971.31
2022-11-24T08:02:24.188Z,100988.69
2022-11-24T08:04:50.571Z,100992.97
2022-11-24T08:07:17.110Z,100985.56
2022-11-24T08:09:43.497Z,100999.66
2022-11-24T08:12:09.877Z,100994.91
2022-11-24T08:14:36.502Z,101005.91
2022-11-24T08:17:03.175Z,101006.47
2022-11-24T08:19:29.598Z,101008.66
2022-11-24T08:21:55.919Z,101009.25
2022-11-24T08:24:22.910Z,101007.13
2022-11-24T08:26:49.281Z,101003.19
2022-11-24T08:29:15.768Z,101005.34
2022-11-24T08:31:42.169Z,101012.06
2022-11-24T08:34:09.746Z,101012.28
2022-11-24T08:36:36.352Z,101020.28
2022-11-24T08:39:03.599Z,101024.34
2022-11-24T08:41:31.009Z,101034.50
2022-11-24T08:43:57.537Z,101030.31
2022-11-24T08:46:24.181Z,101034.72
2022-11-24T08:48:53.917Z,101040.34
2022-11-24T08:51:23.536Z,101032.94
2022-11-24T08:53:54.640Z,101041.16
2022-11-24T08:56:21.019Z,101052.66
2022-11-24T08:58:47.615Z,101053.44
2022-11-24T09:01:15.880Z,101049.16
2022-11-24T09:03:49.978Z,101056.03
2022-11-24T09:06:18.167Z,101060.22
2022-11-24T09:08:44.538Z,101060.47
2022-11-24T09:11:14.146Z,101060.66
2022-11-24T09:13:41.109Z,101065.81
2022-11-24T09:16:09.432Z,101065.25
2022-11-24T09:18:36.569Z,101075.13
2022-11-24T09:21:10.253Z,101067.66
2022-11-24T09:23:36.975Z,101074.25
2022-11-24T09:26:05.897Z,101083.38
2022-11-24T09:28:32.298Z,101084.09
2022-11-24T09:31:07.612Z,101086.97
2022-11-24T09:33:35.286Z,101090.38
2022-11-24T09:36:02.124Z,101087.34
2022-11-24T09:38:28.807Z,101096.38
2022-11-24T09:40:55.895Z,101094.59
2022-11-24T09:43:33.499Z,101103.28
2022-11-24T09:46:06.562Z,101103.81
2022-11-24T09:48:46.310Z,101103.94
2022-11-24T09:51:15.414Z,101117.41
2022-11-24T09:53:54.114Z,101126.28
2022-11-24T09:56:23.810Z,101125.84
2022-11-24T09:59:02.639Z,101122.72
2022-11-24T10:01:35.676Z,101126.41
2022-11-24T10:04:06.238Z,101130.81
2022-11-24T10:06:45.527Z,101138.88
2022-11-24T10:09:11.927Z,101136.34
2022-11-24T10:11:43.049Z,101138.88
2022-11-24T10:14:19.281Z,101143.75
2022-11-24T10:16:57.174Z,101143.53
2022-11-24T10:19:48.190Z,101148.13
2022-11-24T10:22:30.979Z,101158.13
2022-11-24T10:25:20.901Z,101150.81
2022-11-24T10:27:54.495Z,101158.50
2022-11-24T10:30:24.026Z,101170.00
2022-11-24T10:33:02.619Z,101169.09
2022-11-24T10:35:47.139Z,101169.44
2022-11-24T10:38:35.918Z,101163.53
2022-11-24T10:41:07.767Z,101178.41
2022-11-24T10:43:34.230Z,101176.28
2022-11-24T10:46:25.662Z,101171.38
2022-11-24T10:49:04.717Z,101180.34
2022-11-24T10:51:31.054Z,101184.69
2022-11-24T10:54:05.656Z,101185.75
2022-11-24T10:56:42.791Z,101186.00
2022-11-24T10:59:24.291Z,101191.16
2022-11-24T11:01:54.870Z,101179.63
2022-11-24T11:04:26.476Z,101190.94
2022-11-24T11:07:06.489Z,101186.41
2022-11-24T11:09:33.217Z,101207.63
2022-11-24T11:12:42.225Z,101199.28
2022-11-24T11:14:56.842Z,101204.06
2022-11-24T11:17:38.940Z,101202.25
2022-11-24T11:20:16.193Z,101203.59
2022-11-24T11:22:45.289Z,101201.41
2022-11-24T11:25:11.725Z,101199.56
2022-11-24T11:27:40.306Z,101204.19
2022-11-24T11:35:49.768Z,101207.22
2022-11-24T11:38:16.245Z,101203.19
2022-11-24T11:40:43.847Z,101199.44
2022-11-24T11:43:18.695Z,101198.41
2022-11-24T11:45:46.594Z,101201.91
2022-11-24T11:48:31.435Z,101201.38
2022-11-24T11:51:26.647Z,101193.56
2022-11-24T11:54:13.466Z,101198.13
2022-11-24T11:56:45.129Z,101200.31
2022-11-24T11:59:52.647Z,101199.47
2022-11-24T12:02:51.715Z,101193.06
2022-11-24T12:05:43.401Z,101199.78
2022-11-24T12:08:49.797Z,101207.03
2022-11-24T12:12:02.732Z,101201.66
2022-11-24T12:14:55.795Z,101195.72
2022-11-24T12:17:50.705Z,101197.31
2022-11-24T12:20:56.180Z,101209.44
2022-11-24T12:23:44.939Z,101196.84
2022-11-24T12:26:26.217Z,101205.66
2022-11-24T12:28:59.957Z,101206.22
2022-11-24T12:31:59.289Z,101204.34
2022-11-24T12:34:47.030Z,101203.78
2022-11-24T12:37:50.926Z,101203.53
2022-11-24T12:40:42.172Z,101212.13
2022-11-24T12:43:38.891Z,101208.34
2022-11-24T12:46:44.834Z,101208.34
2022-11-24T12:49:24.546Z,101217.78
2022-11-24T12:51:59.689Z,101220.75
2022-11-24T12:54:33.229Z,101225.59
2022-11-24T12:57:13.361Z,101227.69
2022-11-24T12:59:45.598Z,101233.59
2022-11-24T13:02:33.347Z,101233.59
2022-11-24T13:05:28.619Z,101227.66
2022-11-24T13:07:58.512Z,101223.09
2022-11-24T13:13:13.285Z,101216.38
2022-11-24T13:16:34.735Z,101223.63
2022-11-24T13:18:47.789Z,101219.59
2022-11-24T13:21:40.045Z,101228.19
2022-11-24T13:24:22.686Z,101222.28
2022-11-24T13:27:10.849Z,101218.50
2022-11-24T13:29:38.370Z,101215.78
2022-11-24T13:32:04.663Z,101213.94
2022-11-24T13:34:43.190Z,101216.09
2022-11-24T13:37:31.523Z,101212.31
2022-11-24T13:40:23.649Z,101219.03
2022-11-24T13:43:01.163Z,101213.94
2022-11-24T13:45:39.783Z,101212.84
2022-11-24T13:48:22.507Z,101221.66
2022-11-24T13:50:55.988Z,101214.97
2022-11-24T13:53:36.647Z,101213.06
2022-11-24T13:56:02.923Z,101216.31
2022-11-24T13:58:49.623Z,101221.91
2022-11-24T14:01:24.202Z,101219.22
2022-11-24T14:04:31.923Z,101211.41
2022-11-24T14:07:09.427Z,101212.72
2022-11-24T14:09:48.019Z,101215.91
2022-11-24T14:12:14.367Z,101215.38
2022-11-24T14:14:41.498Z,101213.16
2022-11-24T14:17:15.750Z,101226.31
2022-11-24T14:19:50.859Z,101220.38
2022-11-24T14:22:20.923Z,101211.50
2022-11-24T14:24:55.771Z,101215.78
2022-11-24T14:27:28.773Z,101214.16
2022-11-24T14:29:58.077Z,101201.03
2022-11-24T14:32:24.982Z,101192.44
2022-11-24T14:34:52.134Z,101200.97
2022-11-24T14:37:21.573Z,101202.59
2022-11-24T14:39:48.254Z,101205.69
2022-11-24T14:42:27.493Z,101197.38
2022-11-24T14:44:59.683Z,101208.09
2022-11-24T14:47:33.532Z,101211.00
2022-11-24T14:50:10.576Z,101214.41
2022-11-24T14:53:02.110Z,101213.56
2022-11-24T14:55:30.837Z,101211.38
2022-11-24T14:57:59.640Z,101204.91
2022-11-24T15:00:33.029Z,101204.31
2022-11-24T15:03:02.341Z,101212.56
2022-11-24T15:05:52.358Z,101204.25
2022-11-24T15:08:18.928Z,101211.66
2022-11-24T15:10:46.000Z,101214.84
2022-11-24T15:13:21.633Z,101216.66
2022-11-24T15:16:00.535Z,101217.44
2022-11-24T15:18:36.253Z,101222.19
2022-11-24T15:21:03.451Z,101220.50
2022-11-24T15:23:31.831Z,101218.84
2022-11-24T15:26:18.158Z,101226.03
2022-11-24T15:28:47.542Z,101226.22
2022-11-24T15:31:14.687Z,101229.38
2022-11-24T15:33:42.143Z,101231.75
2022-11-24T15:36:08.576Z,101228.22
2022-11-24T15:38:34.958Z,101241.53
2022-11-24T15:41:01.861Z,101234.75
2022-11-24T15:43:36.883Z,101234.66
2022-11-24T15:46:04.827Z,101226.59
2022-11-24T15:48:31.312Z,101235.84
2022-11-24T15:50:58.905Z,101227.28
2022-11-24T15:53:33.398Z,101222.09
2022-11-24T15:56:02.215Z,101227.63
2022-11-24T15:58:28.731Z,101231.31
2022-11-24T16:00:55.214Z,101228.28
2022-11-24T16:03:46.409Z,101226.63
2022-11-24T16:06:23.374Z,101230.22
2022-11-24T16:08:50.938Z,101228.88
2022-11-24T16:11:17.432Z,101235.75
2022-11-24T16:13:50.104Z,101235.13
2022-11-24T16:16:19.230Z,101227.84
2022-11-24T16:18:45.840Z,101228.88
2022-11-24T16:21:12.328Z,101225.88
2022-11-24T16:23:38.786Z,101223.44
2022-11-24T16:26:05.788Z,101224.97
2022-11-24T16:28:32.468Z,101230.56
2022-11-24T16:30:58.787Z,101227.34
2022-11-24T16:33:25.209Z,101227.81
2022-11-24T16:35:51.608Z,101236.88
2022-11-24T16:38:22.020Z,101239.00
2022-11-24T16:40:52.982Z,101235.75
2022-11-24T16:43:19.755Z,101242.16
2022-11-24T16:45:46.262Z,101238.91
2022-11-24T16:48:12.707Z,101247.41
2022-11-24T16:50:39.046Z,101237.22
2022-11-24T16:53:05.405Z,101239.91
2022-11-24T16:55:31.738Z,101229.13
2022-11-24T16:57:58.049Z,101228.06
2022-11-24T17:00:24.575Z,101234.94
2022-11-24T17:02:51.364Z,101229.00
2022-11-24T17:05:17.838Z,101235.41
2022-11-24T17:07:44.232Z,101233.25
2022-11-24T17:10:10.864Z,101236.38
2022-11-24T17:12:37.613Z,101235.22
2022-11-24T17:18:22.472Z,101225.59
2022-11-24T17:20:38.146Z,101225.03
2022-11-24T17:23:04.557Z,101230.16
2022-11-24T17:25:33.050Z,101238.94
2022-11-24T17:27:59.472Z,101235.97
2022-11-24T17:30:25.875Z,101230.16
2022-11-24T17:32:56.539Z,101229.69
2022-11-24T17:35:23.594Z,101238.47
2022-11-24T17:37:50.014Z,101238.81
2022-11-24T17:40:34.286Z,101227.66
2022-11-24T17:43:01.611Z,101235.91
2022-11-24T17:45:29.267Z,101231.38
2022-11-24T17:47:58.413Z,101238.31
2022-11-24T17:50:26.246Z,101224.72
2022-11-24T17:52:53.326Z,101234.59
2022-11-24T17:55:19.819Z,101237.53
2022-11-24T17:57:46.222Z,101245.53
2022-11-24T18:00:13.238Z,101232.41
2022-11-24T18:02:39.753Z,101232.66
2022-11-24T18:05:06.657Z,101233.13
2022-11-24T18:07:35.612Z,101225.94
2022-11-24T18:10:02.032Z,101233.13
2022-11-24T18:12:28.437Z,101238.22
2022-11-24T18:14:55.023Z,101246.00
2022-11-24T18:17:21.416Z,101234.28
2022-11-24T18:19:47.742Z,101234.03
2022-11-24T18:22:14.146Z,101245.75
2022-11-24T18:24:40.610Z,101251.66
2022-11-24T18:27:07.194Z,101237.53
2022-11-24T18:29:33.596Z,101246.09
2022-11-24T18:32:00.287Z,101227.19
2022-11-24T18:34:26.710Z,101227.97
2022-11-24T18:36:53.190Z,101227.41
2022-11-24T18:39:19.642Z,101222.06
2022-11-24T18:41:46.409Z,101226.84
2022-11-24T18:44:12.843Z,101222.78
2022-11-24T18:46:39.302Z,101220.38
2022-11-24T18:49:07.283Z,101225.13
2022-11-24T18:51:33.923Z,101230.72
2022-11-24T18:54:02.086Z,101228.53
2022-11-24T18:56:28.448Z,101228.75
2022-11-24T18:58:56.307Z,101226.00
2022-11-24T19:01:25.566Z,101216.63
2022-11-24T19:03:54.151Z,101226.47
2022-11-24T19:06:22.968Z,101220.56
2022-11-24T19:08:53.399Z,101211.44
2022-11-24T19:11:28.234Z,101217.00
2022-11-24T19:13:55.659Z,101207.16
2022-11-24T19:16:23.145Z,101206.59
2022-11-24T19:18:53.688Z,101206.25
2022-11-24T19:21:21.856Z,101210.19
2022-11-24T19:23:48.298Z,101206.94
2022-11-24T19:26:14.934Z,101209.41
2022-11-24T19:28:41.445Z,101204.28
2022-11-24T19:31:10.522Z,101193.06
2022-11-24T19:33:37.014Z,101201.06
2022-11-24T19:36:05.886Z,101198.94
2022-11-24T19:38:33.376Z,101195.47
2022-11-24T19:41:05.069Z,101189.09
2022-11-24T19:43:32.222Z,101192.25
2022-11-24T19:46:10.263Z,101191.66
2022-11-24T19:48:39.047Z,101193.75
2022-11-24T19:51:08.176Z,101200.38
2022-11-24T19:53:34.951Z,101206.19
2022-11-24T19:56:13.005Z,101200.31
2022-11-24T19:58:40.543Z,101196.03
2022-11-24T20:01:11.515Z,101204.50
2022-11-24T20:03:39.433Z,101207.38
2022-11-24T20:06:07.897Z,101211.13
2022-11-24T20:08:36.173Z,101216.66
2022-11-24T20:11:07.009Z,101206.25
2022-11-24T20:13:35.114Z,101210.28
2022-11-24T20:16:13.615Z,101210.53
2022-11-24T20:18:43.824Z,101198.00
2022-11-24T20:21:18.958Z,101209.50
2022-11-24T20:23:51.555Z,101205.69
2022-11-24T20:26:20.777Z,101199.50
2022-11-24T20:28:47.550Z,101204.84
2022-11-24T20:31:19.188Z,101199.50
2022-11-24T20:33:45.927Z,101185.63
2022-11-24T20:36:15.272Z,101189.94
2022-11-24T20:38:42.829Z,101189.94
2022-11-24T20:41:18.340Z,101197.34
2022-11-24T20:43:45.498Z,101201.38
2022-11-24T20:46:16.958Z,101193.72
2022-11-24T20:48:43.632Z,101202.53
2022-11-24T20:51:21.550Z,101195.59
2022-11-24T20:53:49.432Z,101191.03
2022-11-24T20:56:18.569Z,101191.16
2022-11-24T20:58:45.315Z,101194.16
2022-11-24T21:01:19.991Z,101193.91
2022-11-24T21:03:50.914Z,101194.25
2022-11-24T21:06:17.234Z,101189.47
2022-11-24T21:08:43.622Z,101194.13
2022-11-24T21:11:12.164Z,101188.41
2022-11-24T21:13:40.987Z,101197.81
2022-11-24T21:16:18.055Z,101198.63
2022-11-24T21:18:45.791Z,101203.16
2022-11-24T21:21:12.934Z,101202.44
2022-11-24T21:23:39.597Z,101198.47
2022-11-24T21:26:13.150Z,101187.81
2022-11-24T21:28:43.529Z,101180.94
2022-11-24T21:31:21.061Z,101183.63
2022-11-24T21:33:49.526Z,101188.94
2022-11-24T21:36:19.557Z,101187.91
2022-11-24T21:38:56.999Z,101176.19
2022-11-24T21:41:25.437Z,101176.19
2022-11-24T21:43:53.100Z,101171.06
2022-11-24T21:46:19.645Z,101169.69
2022-11-24T21:48:46.091Z,101175.84
2022-11-24T21:51:17.448Z,101160.91
2022-11-24T21:53:44.718Z,101160.91
2022-11-24T21:56:19.595Z,101161.94
2022-11-24T21:58:55.093Z,101163.56
2022-11-24T22:01:24.385Z,101166.78
2022-11-24T22:03:51.286Z,101163.31
2022-11-24T22:06:19.199Z,101154.28
2022-11-24T22:08:47.259Z,101156.94
2022-11-24T22:11:14.949Z,101153.69
2022-11-24T22:13:42.982Z,101143.59
2022-11-24T22:16:12.604Z,101150.31
2022-11-24T22:18:40.984Z,101147.41
2022-11-24T22:21:11.483Z,101137.53
2022-11-24T22:23:38.068Z,101137.53
2022-11-24T22:26:12.412Z,101152.75
2022-11-24T22:28:39.130Z,101146.34
2022-11-24T22:31:11.761Z,101153.22
2022-11-24T22:33:38.205Z,101148.13
2022-11-24T22:36:05.226Z,101146.84
2022-11-24T22:38:32.441Z,101149.00
2022-11-24T22:41:04.472Z,101154.34
2022-11-24T22:43:33.178Z,101139.94
2022-11-24T22:46:04.950Z,101149.81
2022-11-24T22:48:31.773Z,101149.00
2022-11-24T22:51:02.906Z,101158.09
2022-11-24T22:53:29.543Z,101139.63
2022-11-24T22:55:56.007Z,101148.69
2022-11-24T22:58:22.519Z,101151.34
2022-11-24T23:00:48.846Z,101148.69
2022-11-24T23:03:15.232Z,101151.34
2022-11-24T23:05:41.635Z,101154.84
2022-11-24T23:08:08.028Z,101160.97
2022-11-24T23:10:34.388Z,101160.97
2022-11-24T23:13:00.782Z,101159.34
2022-11-24T23:15:27.194Z,101158.56
2022-11-24T23:17:53.574Z,101152.41
2022-11-24T23:20:19.989Z,101148.13
2022-11-24T23:22:46.456Z,101147.88
2022-11-24T23:25:12.775Z,101144.41
2022-11-24T23:27:39.152Z,101144.97
2022-11-24T23:30:06.334Z,101141.50
2022-11-24T23:32:32.701Z,101134.28
2022-11-24T23:34:59.046Z,101132.69
2022-11-24T23:37:34.453Z,101129.22
2022-11-24T23:40:12.215Z,101133.50
2022-11-24T23:42:38.539Z,101123.06
2022-11-24T23:45:05.833Z,101129.22
2022-11-24T23:47:32.165Z,101129.44
2022-11-24T23:49:58.578Z,101130.72
2022-11-24T23:52:24.943Z,101130.16
2022-11-24T23:54:51.350Z,101138.63
2022-11-24T23:57:17.682Z,101134.38
2022-11-24T23:59:44.070Z,101133.81
